sensor_id;sensor_type;location;lat;lon;timestamp;P1;durP1;ratioP1;P2;durP2;ratioP2
8317;SDS011;4196;48.926;8.964;2022-07-29T00:01:24;7.53;;;5.00;;
8317;SDS011;4196;48.926;8.964;2022-07-29T00:04:11;5.80;;;4.67;;
8317;SDS011;4196;48.926;8.964;2022-07-29T00:06:59;5.83;;;5.17;;
8317;SDS011;4196;48.926;8.964;2022-07-29T00:09:45;5.73;;;5.13;;
8317;SDS011;4196;48.926;8.964;2022-07-29T00:12:37;6.67;;;5.93;;
8317;SDS011;4196;48.926;8.964;2022-07-29T00:15:23;7.03;;;5.07;;
8317;SDS011;4196;48.926;8.964;2022-07-29T00:18:10;9.07;;;5.60;;
8317;SDS011;4196;48.926;8.964;2022-07-29T00:20:56;6.50;;;5.23;;
8317;SDS011;4196;48.926;8.964;2022-07-29T00:23:43;10.07;;;6.13;;
8317;SDS011;4196;48.926;8.964;2022-07-29T00:26:29;6.17;;;5.50;;
8317;SDS011;4196;48.926;8.964;2022-07-29T00:29:17;6.70;;;5.97;;
8317;SDS011;4196;48.926;8.964;2022-07-29T00:32:20;6.40;;;5.47;;
8317;SDS011;4196;48.926;8.964;2022-07-29T00:35:06;8.00;;;5.17;;
8317;SDS011;4196;48.926;8.964;2022-07-29T00:38:12;7.27;;;5.77;;
8317;SDS011;4196;48.926;8.964;2022-07-29T00:41:00;6.90;;;5.50;;
8317;SDS011;4196;48.926;8.964;2022-07-29T00:43:46;7.27;;;5.57;;
8317;SDS011;4196;48.926;8.964;2022-07-29T00:46:33;7.30;;;6.20;;
8317;SDS011;4196;48.926;8.964;2022-07-29T00:49:20;7.40;;;5.73;;
8317;SDS011;4196;48.926;8.964;2022-07-29T00:52:07;7.10;;;6.07;;
8317;SDS011;4196;48.926;8.964;2022-07-29T00:54:54;9.87;;;6.93;;
8317;SDS011;4196;48.926;8.964;2022-07-29T00:57:42;6.97;;;6.00;;
8317;SDS011;4196;48.926;8.964;2022-07-29T01:00:30;8.60;;;6.50;;
8317;SDS011;4196;48.926;8.964;2022-07-29T01:03:17;7.10;;;5.73;;
8317;SDS011;4196;48.926;8.964;2022-07-29T01:06:03;6.10;;;5.50;;
8317;SDS011;4196;48.926;8.964;2022-07-29T01:08:50;7.03;;;5.63;;
8317;SDS011;4196;48.926;8.964;2022-07-29T01:11:37;7.07;;;6.00;;
8317;SDS011;4196;48.926;8.964;2022-07-29T01:14:24;7.90;;;6.10;;
8317;SDS011;4196;48.926;8.964;2022-07-29T01:32:15;6.03;;;5.43;;
8317;SDS011;4196;48.926;8.964;2022-07-29T01:35:17;11.13;;;5.60;;
8317;SDS011;4196;48.926;8.964;2022-07-29T01:38:20;6.83;;;6.10;;
8317;SDS011;4196;48.926;8.964;2022-07-29T01:41:09;8.37;;;6.03;;
8317;SDS011;4196;48.926;8.964;2022-07-29T01:44:07;8.40;;;5.77;;
8317;SDS011;4196;48.926;8.964;2022-07-29T01:47:00;7.73;;;5.63;;
8317;SDS011;4196;48.926;8.964;2022-07-29T01:49:52;9.37;;;5.97;;
8317;SDS011;4196;48.926;8.964;2022-07-29T01:53:04;7.17;;;5.50;;
8317;SDS011;4196;48.926;8.964;2022-07-29T01:55:53;10.63;;;6.50;;
8317;SDS011;4196;48.926;8.964;2022-07-29T01:58:44;8.13;;;6.70;;
8317;SDS011;4196;48.926;8.964;2022-07-29T02:01:33;9.37;;;6.13;;
8317;SDS011;4196;48.926;8.964;2022-07-29T02:04:22;7.83;;;5.50;;
8317;SDS011;4196;48.926;8.964;2022-07-29T02:07:19;8.23;;;6.53;;
8317;SDS011;4196;48.926;8.964;2022-07-29T02:10:07;7.13;;;5.67;;
8317;SDS011;4196;48.926;8.964;2022-07-29T02:12:56;6.87;;;5.87;;
8317;SDS011;4196;48.926;8.964;2022-07-29T02:15:44;7.10;;;5.63;;
8317;SDS011;4196;48.926;8.964;2022-07-29T02:18:32;7.40;;;6.37;;
8317;SDS011;4196;48.926;8.964;2022-07-29T02:21:23;7.60;;;5.67;;
8317;SDS011;4196;48.926;8.964;2022-07-29T02:24:11;7.40;;;6.70;;
8317;SDS011;4196;48.926;8.964;2022-07-29T02:26:59;7.30;;;5.37;;
8317;SDS011;4196;48.926;8.964;2022-07-29T02:29:47;6.63;;;5.77;;
8317;SDS011;4196;48.926;8.964;2022-07-29T02:32:36;7.53;;;5.97;;
8317;SDS011;4196;48.926;8.964;2022-07-29T02:35:26;6.80;;;6.10;;
8317;SDS011;4196;48.926;8.964;2022-07-29T02:38:20;7.60;;;6.50;;
8317;SDS011;4196;48.926;8.964;2022-07-29T02:41:30;6.40;;;5.80;;
8317;SDS011;4196;48.926;8.964;2022-07-29T02:44:24;7.53;;;6.47;;
8317;SDS011;4196;48.926;8.964;2022-07-29T02:47:22;6.83;;;6.17;;
8317;SDS011;4196;48.926;8.964;2022-07-29T02:50:29;7.10;;;6.40;;
8317;SDS011;4196;48.926;8.964;2022-07-29T02:53:22;7.73;;;6.60;;
8317;SDS011;4196;48.926;8.964;2022-07-29T02:56:13;9.97;;;6.37;;
8317;SDS011;4196;48.926;8.964;2022-07-29T02:59:03;9.43;;;6.83;;
8317;SDS011;4196;48.926;8.964;2022-07-29T03:01:54;8.17;;;7.23;;
8317;SDS011;4196;48.926;8.964;2022-07-29T03:04:43;8.90;;;6.80;;
8317;SDS011;4196;48.926;8.964;2022-07-29T03:07:32;8.83;;;7.00;;
8317;SDS011;4196;48.926;8.964;2022-07-29T03:10:20;7.33;;;6.63;;
8317;SDS011;4196;48.926;8.964;2022-07-29T03:13:07;10.00;;;7.03;;
8317;SDS011;4196;48.926;8.964;2022-07-29T03:15:55;8.37;;;7.23;;
8317;SDS011;4196;48.926;8.964;2022-07-29T03:18:43;9.33;;;7.50;;
8317;SDS011;4196;48.926;8.964;2022-07-29T03:21:30;9.07;;;7.80;;
8317;SDS011;4196;48.926;8.964;2022-07-29T03:27:14;8.63;;;7.67;;
8317;SDS011;4196;48.926;8.964;2022-07-29T03:30:00;10.50;;;7.13;;
8317;SDS011;4196;48.926;8.964;2022-07-29T03:32:46;9.27;;;7.30;;
8317;SDS011;4196;48.926;8.964;2022-07-29T03:35:33;11.00;;;7.93;;
8317;SDS011;4196;48.926;8.964;2022-07-29T03:38:19;13.13;;;8.03;;
8317;SDS011;4196;48.926;8.964;2022-07-29T03:41:12;10.53;;;9.03;;
8317;SDS011;4196;48.926;8.964;2022-07-29T03:44:00;10.33;;;7.97;;
8317;SDS011;4196;48.926;8.964;2022-07-29T03:46:48;11.27;;;8.20;;
8317;SDS011;4196;48.926;8.964;2022-07-29T03:49:36;11.53;;;8.57;;
8317;SDS011;4196;48.926;8.964;2022-07-29T03:52:25;9.10;;;7.70;;
8317;SDS011;4196;48.926;8.964;2022-07-29T03:55:12;11.03;;;8.43;;
8317;SDS011;4196;48.926;8.964;2022-07-29T03:57:59;10.67;;;8.43;;
8317;SDS011;4196;48.926;8.964;2022-07-29T04:00:47;13.07;;;8.03;;
8317;SDS011;4196;48.926;8.964;2022-07-29T04:03:34;13.20;;;8.67;;
8317;SDS011;4196;48.926;8.964;2022-07-29T04:06:21;10.47;;;8.70;;
8317;SDS011;4196;48.926;8.964;2022-07-29T04:09:08;11.43;;;8.70;;
8317;SDS011;4196;48.926;8.964;2022-07-29T04:11:55;9.40;;;8.47;;
8317;SDS011;4196;48.926;8.964;2022-07-29T04:14:48;11.30;;;8.50;;
8317;SDS011;4196;48.926;8.964;2022-07-29T04:17:35;11.00;;;8.10;;
8317;SDS011;4196;48.926;8.964;2022-07-29T04:20:22;9.07;;;8.17;;
8317;SDS011;4196;48.926;8.964;2022-07-29T04:23:08;10.33;;;7.70;;
8317;SDS011;4196;48.926;8.964;2022-07-29T04:25:55;12.77;;;8.30;;
8317;SDS011;4196;48.926;8.964;2022-07-29T04:28:41;10.00;;;8.23;;
8317;SDS011;4196;48.926;8.964;2022-07-29T04:31:28;8.90;;;7.97;;
8317;SDS011;4196;48.926;8.964;2022-07-29T04:34:15;12.80;;;8.60;;
8317;SDS011;4196;48.926;8.964;2022-07-29T04:37:02;11.43;;;8.40;;
8317;SDS011;4196;48.926;8.964;2022-07-29T04:39:48;10.77;;;8.33;;
8317;SDS011;4196;48.926;8.964;2022-07-29T04:42:35;15.30;;;8.40;;
8317;SDS011;4196;48.926;8.964;2022-07-29T04:45:31;9.30;;;7.33;;
8317;SDS011;4196;48.926;8.964;2022-07-29T04:48:17;13.67;;;8.27;;
8317;SDS011;4196;48.926;8.964;2022-07-29T04:51:04;9.43;;;6.97;;
8317;SDS011;4196;48.926;8.964;2022-07-29T04:53:50;9.63;;;7.13;;
8317;SDS011;4196;48.926;8.964;2022-07-29T04:56:36;12.03;;;8.13;;
8317;SDS011;4196;48.926;8.964;2022-07-29T04:59:22;10.47;;;7.43;;
8317;SDS011;4196;48.926;8.964;2022-07-29T05:02:09;15.10;;;7.00;;
8317;SDS011;4196;48.926;8.964;2022-07-29T05:04:55;8.47;;;7.07;;
8317;SDS011;4196;48.926;8.964;2022-07-29T05:07:41;8.33;;;6.07;;
8317;SDS011;4196;48.926;8.964;2022-07-29T05:10:28;6.90;;;6.20;;
8317;SDS011;4196;48.926;8.964;2022-07-29T05:13:14;6.00;;;5.20;;
8317;SDS011;4196;48.926;8.964;2022-07-29T05:16:02;6.63;;;5.93;;
8317;SDS011;4196;48.926;8.964;2022-07-29T05:18:48;7.33;;;5.10;;
8317;SDS011;4196;48.926;8.964;2022-07-29T05:21:35;7.37;;;5.20;;
8317;SDS011;4196;48.926;8.964;2022-07-29T05:24:21;8.67;;;6.23;;
8317;SDS011;4196;48.926;8.964;2022-07-29T05:27:08;7.23;;;5.37;;
8317;SDS011;4196;48.926;8.964;2022-07-29T05:29:55;5.90;;;5.30;;
8317;SDS011;4196;48.926;8.964;2022-07-29T05:32:41;6.17;;;4.80;;
8317;SDS011;4196;48.926;8.964;2022-07-29T05:35:28;7.10;;;5.70;;
8317;SDS011;4196;48.926;8.964;2022-07-29T05:38:15;7.10;;;5.30;;
8317;SDS011;4196;48.926;8.964;2022-07-29T05:41:01;5.97;;;5.27;;
8317;SDS011;4196;48.926;8.964;2022-07-29T05:43:48;5.80;;;5.17;;
8317;SDS011;4196;48.926;8.964;2022-07-29T05:46:34;6.60;;;5.97;;
8317;SDS011;4196;48.926;8.964;2022-07-29T05:49:22;7.70;;;6.90;;
8317;SDS011;4196;48.926;8.964;2022-07-29T05:52:12;8.90;;;6.43;;
8317;SDS011;4196;48.926;8.964;2022-07-29T05:55:01;9.90;;;5.97;;
8317;SDS011;4196;48.926;8.964;2022-07-29T05:57:51;8.27;;;5.63;;
8317;SDS011;4196;48.926;8.964;2022-07-29T06:00:38;6.63;;;5.97;;
8317;SDS011;4196;48.926;8.964;2022-07-29T06:03:25;8.80;;;5.90;;
8317;SDS011;4196;48.926;8.964;2022-07-29T06:06:11;10.17;;;6.03;;
8317;SDS011;4196;48.926;8.964;2022-07-29T06:08:58;6.63;;;5.90;;
8317;SDS011;4196;48.926;8.964;2022-07-29T06:11:57;8.17;;;5.90;;
8317;SDS011;4196;48.926;8.964;2022-07-29T06:14:44;8.27;;;5.40;;
8317;SDS011;4196;48.926;8.964;2022-07-29T06:17:30;8.90;;;6.17;;
8317;SDS011;4196;48.926;8.964;2022-07-29T06:20:17;6.93;;;6.20;;
8317;SDS011;4196;48.926;8.964;2022-07-29T06:23:12;6.67;;;5.50;;
8317;SDS011;4196;48.926;8.964;2022-07-29T06:25:58;6.20;;;5.60;;
8317;SDS011;4196;48.926;8.964;2022-07-29T06:28:45;7.43;;;5.83;;
8317;SDS011;4196;48.926;8.964;2022-07-29T06:31:32;8.37;;;6.10;;
8317;SDS011;4196;48.926;8.964;2022-07-29T06:34:18;8.83;;;5.53;;
8317;SDS011;4196;48.926;8.964;2022-07-29T06:37:08;6.60;;;6.00;;
8317;SDS011;4196;48.926;8.964;2022-07-29T06:40:00;7.63;;;5.97;;
8317;SDS011;4196;48.926;8.964;2022-07-29T06:43:05;8.07;;;5.37;;
8317;SDS011;4196;48.926;8.964;2022-07-29T06:45:52;5.90;;;5.30;;
8317;SDS011;4196;48.926;8.964;2022-07-29T06:48:39;7.63;;;5.40;;
8317;SDS011;4196;48.926;8.964;2022-07-29T06:51:28;6.77;;;5.53;;
8317;SDS011;4196;48.926;8.964;2022-07-29T06:54:14;8.57;;;5.17;;
8317;SDS011;4196;48.926;8.964;2022-07-29T06:57:01;6.40;;;5.27;;
8317;SDS011;4196;48.926;8.964;2022-07-29T06:59:47;6.83;;;4.60;;
8317;SDS011;4196;48.926;8.964;2022-07-29T07:02:34;6.23;;;5.23;;
8317;SDS011;4196;48.926;8.964;2022-07-29T07:05:20;4.90;;;4.40;;
8317;SDS011;4196;48.926;8.964;2022-07-29T07:08:07;5.32;;;4.35;;
8317;SDS011;4196;48.926;8.964;2022-07-29T07:10:54;6.47;;;4.43;;
8317;SDS011;4196;48.926;8.964;2022-07-29T07:13:41;5.20;;;4.32;;
8317;SDS011;4196;48.926;8.964;2022-07-29T07:16:27;6.45;;;4.05;;
8317;SDS011;4196;48.926;8.964;2022-07-29T07:19:14;5.68;;;3.60;;
8317;SDS011;4196;48.926;8.964;2022-07-29T07:22:00;5.85;;;4.25;;
8317;SDS011;4196;48.926;8.964;2022-07-29T07:24:49;7.22;;;3.95;;
8317;SDS011;4196;48.926;8.964;2022-07-29T07:27:35;4.25;;;3.15;;
8317;SDS011;4196;48.926;8.964;2022-07-29T07:30:21;7.88;;;3.83;;
8317;SDS011;4196;48.926;8.964;2022-07-29T07:33:08;4.18;;;3.70;;
8317;SDS011;4196;48.926;8.964;2022-07-29T07:35:55;8.75;;;3.47;;
8317;SDS011;4196;48.926;8.964;2022-07-29T07:38:42;10.52;;;3.97;;
8317;SDS011;4196;48.926;8.964;2022-07-29T07:41:28;5.10;;;3.42;;
8317;SDS011;4196;48.926;8.964;2022-07-29T07:44:17;5.05;;;3.60;;
8317;SDS011;4196;48.926;8.964;2022-07-29T07:47:04;5.45;;;3.88;;
8317;SDS011;4196;48.926;8.964;2022-07-29T07:49:57;6.57;;;4.15;;
8317;SDS011;4196;48.926;8.964;2022-07-29T07:55:39;5.90;;;3.80;;
8317;SDS011;4196;48.926;8.964;2022-07-29T07:58:46;8.23;;;3.70;;
8317;SDS011;4196;48.926;8.964;2022-07-29T08:01:33;6.20;;;3.38;;
8317;SDS011;4196;48.926;8.964;2022-07-29T08:04:35;5.15;;;3.83;;
8317;SDS011;4196;48.926;8.964;2022-07-29T08:07:21;10.23;;;3.90;;
8317;SDS011;4196;48.926;8.964;2022-07-29T08:10:08;5.13;;;3.45;;
8317;SDS011;4196;48.926;8.964;2022-07-29T08:12:54;5.10;;;3.50;;
8317;SDS011;4196;48.926;8.964;2022-07-29T08:15:41;4.32;;;3.65;;
8317;SDS011;4196;48.926;8.964;2022-07-29T08:18:29;8.20;;;4.00;;
8317;SDS011;4196;48.926;8.964;2022-07-29T08:21:17;8.82;;;3.97;;
8317;SDS011;4196;48.926;8.964;2022-07-29T08:24:04;12.88;;;4.07;;
8317;SDS011;4196;48.926;8.964;2022-07-29T08:27:10;9.68;;;3.50;;
8317;SDS011;4196;48.926;8.964;2022-07-29T08:30:17;7.38;;;3.90;;
8317;SDS011;4196;48.926;8.964;2022-07-29T08:33:03;6.43;;;3.75;;
8317;SDS011;4196;48.926;8.964;2022-07-29T08:35:50;11.80;;;3.90;;
8317;SDS011;4196;48.926;8.964;2022-07-29T08:38:36;7.35;;;4.18;;
8317;SDS011;4196;48.926;8.964;2022-07-29T08:41:23;4.68;;;3.42;;
8317;SDS011;4196;48.926;8.964;2022-07-29T08:44:10;6.20;;;3.85;;
8317;SDS011;4196;48.926;8.964;2022-07-29T08:46:56;8.05;;;3.97;;
8317;SDS011;4196;48.926;8.964;2022-07-29T08:49:43;9.07;;;4.22;;
8317;SDS011;4196;48.926;8.964;2022-07-29T08:52:30;5.28;;;3.97;;
8317;SDS011;4196;48.926;8.964;2022-07-29T08:55:20;7.82;;;4.43;;
8317;SDS011;4196;48.926;8.964;2022-07-29T08:58:06;6.88;;;4.18;;
8317;SDS011;4196;48.926;8.964;2022-07-29T09:00:56;6.40;;;4.10;;
8317;SDS011;4196;48.926;8.964;2022-07-29T09:03:44;9.23;;;3.72;;
8317;SDS011;4196;48.926;8.964;2022-07-29T09:06:34;6.00;;;3.80;;
8317;SDS011;4196;48.926;8.964;2022-07-29T09:09:22;5.20;;;3.78;;
8317;SDS011;4196;48.926;8.964;2022-07-29T09:12:09;5.70;;;4.00;;
8317;SDS011;4196;48.926;8.964;2022-07-29T09:14:57;6.35;;;3.95;;
8317;SDS011;4196;48.926;8.964;2022-07-29T09:17:45;7.68;;;3.75;;
8317;SDS011;4196;48.926;8.964;2022-07-29T09:20:32;5.05;;;4.05;;
8317;SDS011;4196;48.926;8.964;2022-07-29T09:23:38;5.30;;;3.80;;
8317;SDS011;4196;48.926;8.964;2022-07-29T09:26:29;4.93;;;3.80;;
8317;SDS011;4196;48.926;8.964;2022-07-29T09:29:18;7.18;;;4.35;;
8317;SDS011;4196;48.926;8.964;2022-07-29T09:32:08;5.00;;;3.92;;
8317;SDS011;4196;48.926;8.964;2022-07-29T09:35:18;5.63;;;4.00;;
8317;SDS011;4196;48.926;8.964;2022-07-29T09:38:14;9.68;;;3.78;;
8317;SDS011;4196;48.926;8.964;2022-07-29T09:41:01;5.05;;;3.70;;
8317;SDS011;4196;48.926;8.964;2022-07-29T09:43:58;4.63;;;3.60;;
8317;SDS011;4196;48.926;8.964;2022-07-29T09:47:01;4.45;;;3.40;;
8317;SDS011;4196;48.926;8.964;2022-07-29T09:49:56;4.65;;;3.67;;
8317;SDS011;4196;48.926;8.964;2022-07-29T09:52:46;3.30;;;3.00;;
8317;SDS011;4196;48.926;8.964;2022-07-29T09:55:45;6.32;;;3.20;;
8317;SDS011;4196;48.926;8.964;2022-07-29T09:58:34;7.95;;;3.13;;
8317;SDS011;4196;48.926;8.964;2022-07-29T10:01:27;4.32;;;3.30;;
8317;SDS011;4196;48.926;8.964;2022-07-29T10:04:15;3.47;;;3.17;;
8317;SDS011;4196;48.926;8.964;2022-07-29T10:07:02;6.60;;;3.25;;
8317;SDS011;4196;48.926;8.964;2022-07-29T10:09:54;4.03;;;2.80;;
8317;SDS011;4196;48.926;8.964;2022-07-29T10:13:17;5.50;;;3.33;;
8317;SDS011;4196;48.926;8.964;2022-07-29T10:16:01;6.05;;;3.33;;
8317;SDS011;4196;48.926;8.964;2022-07-29T10:18:48;5.55;;;3.30;;
8317;SDS011;4196;48.926;8.964;2022-07-29T10:21:37;4.40;;;2.95;;
8317;SDS011;4196;48.926;8.964;2022-07-29T10:24:26;4.15;;;3.40;;
8317;SDS011;4196;48.926;8.964;2022-07-29T10:27:13;5.70;;;3.45;;
8317;SDS011;4196;48.926;8.964;2022-07-29T10:30:00;5.32;;;3.00;;
8317;SDS011;4196;48.926;8.964;2022-07-29T10:39:18;3.75;;;2.90;;
8317;SDS011;4196;48.926;8.964;2022-07-29T10:42:34;4.15;;;2.88;;
8317;SDS011;4196;48.926;8.964;2022-07-29T10:45:27;7.18;;;3.30;;
8317;SDS011;4196;48.926;8.964;2022-07-29T10:48:16;6.95;;;3.17;;
8317;SDS011;4196;48.926;8.964;2022-07-29T10:51:04;3.78;;;3.40;;
8317;SDS011;4196;48.926;8.964;2022-07-29T10:53:52;5.13;;;3.13;;
8317;SDS011;4196;48.926;8.964;2022-07-29T10:56:38;6.43;;;3.20;;
8317;SDS011;4196;48.926;8.964;2022-07-29T10:59:29;5.65;;;3.42;;
8317;SDS011;4196;48.926;8.964;2022-07-29T11:05:27;5.43;;;3.40;;
8317;SDS011;4196;48.926;8.964;2022-07-29T11:08:25;3.70;;;3.30;;
8317;SDS011;4196;48.926;8.964;2022-07-29T11:14:07;8.02;;;2.80;;
8317;SDS011;4196;48.926;8.964;2022-07-29T11:17:01;5.60;;;3.75;;
8317;SDS011;4196;48.926;8.964;2022-07-29T11:20:30;2.95;;;2.65;;
8317;SDS011;4196;48.926;8.964;2022-07-29T11:23:26;4.53;;;3.53;;
8317;SDS011;4196;48.926;8.964;2022-07-29T11:26:20;4.63;;;3.15;;
8317;SDS011;4196;48.926;8.964;2022-07-29T11:29:19;5.55;;;3.10;;
8317;SDS011;4196;48.926;8.964;2022-07-29T11:32:11;6.47;;;3.15;;
8317;SDS011;4196;48.926;8.964;2022-07-29T11:35:10;4.63;;;2.85;;
8317;SDS011;4196;48.926;8.964;2022-07-29T11:38:25;5.88;;;3.10;;
8317;SDS011;4196;48.926;8.964;2022-07-29T11:44:10;3.33;;;3.00;;
8317;SDS011;4196;48.926;8.964;2022-07-29T11:46:57;3.40;;;2.80;;
8317;SDS011;4196;48.926;8.964;2022-07-29T11:49:44;3.08;;;2.78;;
8317;SDS011;4196;48.926;8.964;2022-07-29T11:52:33;3.92;;;2.90;;
8317;SDS011;4196;48.926;8.964;2022-07-29T11:55:35;3.00;;;2.80;;
8317;SDS011;4196;48.926;8.964;2022-07-29T11:58:36;3.90;;;2.85;;
8317;SDS011;4196;48.926;8.964;2022-07-29T12:01:23;7.63;;;3.70;;
8317;SDS011;4196;48.926;8.964;2022-07-29T12:04:13;6.72;;;4.25;;
8317;SDS011;4196;48.926;8.964;2022-07-29T12:06:59;6.38;;;3.85;;
8317;SDS011;4196;48.926;8.964;2022-07-29T12:09:50;6.63;;;3.25;;
8317;SDS011;4196;48.926;8.964;2022-07-29T12:12:41;4.20;;;3.42;;
8317;SDS011;4196;48.926;8.964;2022-07-29T12:15:28;4.65;;;3.42;;
8317;SDS011;4196;48.926;8.964;2022-07-29T12:18:32;5.70;;;3.20;;
8317;SDS011;4196;48.926;8.964;2022-07-29T12:21:18;5.28;;;3.50;;
8317;SDS011;4196;48.926;8.964;2022-07-29T12:24:10;3.20;;;2.75;;
8317;SDS011;4196;48.926;8.964;2022-07-29T12:26:57;3.83;;;3.10;;
8317;SDS011;4196;48.926;8.964;2022-07-29T12:29:45;4.45;;;3.20;;
8317;SDS011;4196;48.926;8.964;2022-07-29T12:35:34;3.92;;;3.03;;
8317;SDS011;4196;48.926;8.964;2022-07-29T12:38:20;4.65;;;3.40;;
8317;SDS011;4196;48.926;8.964;2022-07-29T12:41:07;5.70;;;2.95;;
8317;SDS011;4196;48.926;8.964;2022-07-29T12:43:54;4.93;;;3.05;;
8317;SDS011;4196;48.926;8.964;2022-07-29T12:46:41;4.43;;;3.20;;
8317;SDS011;4196;48.926;8.964;2022-07-29T12:49:28;6.95;;;3.55;;
8317;SDS011;4196;48.926;8.964;2022-07-29T12:52:30;4.05;;;3.05;;
8317;SDS011;4196;48.926;8.964;2022-07-29T12:58:32;5.30;;;3.00;;
8317;SDS011;4196;48.926;8.964;2022-07-29T13:01:19;4.53;;;2.83;;
8317;SDS011;4196;48.926;8.964;2022-07-29T13:04:06;4.25;;;2.83;;
8317;SDS011;4196;48.926;8.964;2022-07-29T13:07:03;6.22;;;2.80;;
8317;SDS011;4196;48.926;8.964;2022-07-29T13:09:53;5.15;;;2.58;;
8317;SDS011;4196;48.926;8.964;2022-07-29T13:16:04;3.47;;;2.70;;
8317;SDS011;4196;48.926;8.964;2022-07-29T13:22:19;4.97;;;2.70;;
8317;SDS011;4196;48.926;8.964;2022-07-29T13:25:09;5.28;;;2.60;;
8317;SDS011;4196;48.926;8.964;2022-07-29T13:27:56;5.47;;;2.60;;
8317;SDS011;4196;48.926;8.964;2022-07-29T13:30:42;3.00;;;2.30;;
8317;SDS011;4196;48.926;8.964;2022-07-29T13:33:30;2.20;;;2.00;;
8317;SDS011;4196;48.926;8.964;2022-07-29T13:36:16;2.80;;;2.30;;
8317;SDS011;4196;48.926;8.964;2022-07-29T13:39:03;3.13;;;2.30;;
8317;SDS011;4196;48.926;8.964;2022-07-29T13:41:49;2.85;;;2.08;;
8317;SDS011;4196;48.926;8.964;2022-07-29T13:44:37;3.53;;;2.22;;
8317;SDS011;4196;48.926;8.964;2022-07-29T13:47:23;2.92;;;2.53;;
8317;SDS011;4196;48.926;8.964;2022-07-29T13:50:18;5.32;;;2.55;;
8317;SDS011;4196;48.926;8.964;2022-07-29T13:53:04;2.60;;;2.30;;
8317;SDS011;4196;48.926;8.964;2022-07-29T13:55:51;4.22;;;2.25;;
8317;SDS011;4196;48.926;8.964;2022-07-29T13:58:37;2.88;;;2.33;;
8317;SDS011;4196;48.926;8.964;2022-07-29T14:01:24;3.47;;;2.35;;
8317;SDS011;4196;48.926;8.964;2022-07-29T14:04:11;3.53;;;2.50;;
8317;SDS011;4196;48.926;8.964;2022-07-29T14:06:58;3.58;;;2.30;;
8317;SDS011;4196;48.926;8.964;2022-07-29T14:09:48;3.60;;;2.38;;
8317;SDS011;4196;48.926;8.964;2022-07-29T14:12:35;3.47;;;2.35;;
8317;SDS011;4196;48.926;8.964;2022-07-29T14:15:22;2.83;;;2.53;;
8317;SDS011;4196;48.926;8.964;2022-07-29T14:18:09;2.92;;;2.58;;
8317;SDS011;4196;48.926;8.964;2022-07-29T14:20:56;4.28;;;2.60;;
8317;SDS011;4196;48.926;8.964;2022-07-29T14:23:43;4.47;;;2.47;;
8317;SDS011;4196;48.926;8.964;2022-07-29T14:26:30;3.95;;;2.58;;
8317;SDS011;4196;48.926;8.964;2022-07-29T14:29:17;7.13;;;2.45;;
8317;SDS011;4196;48.926;8.964;2022-07-29T14:32:07;3.92;;;2.53;;
8317;SDS011;4196;48.926;8.964;2022-07-29T14:34:55;5.30;;;2.05;;
8317;SDS011;4196;48.926;8.964;2022-07-29T14:37:41;2.85;;;2.10;;
8317;SDS011;4196;48.926;8.964;2022-07-29T14:40:27;2.53;;;2.25;;
8317;SDS011;4196;48.926;8.964;2022-07-29T14:43:14;3.33;;;2.40;;
8317;SDS011;4196;48.926;8.964;2022-07-29T14:46:00;3.10;;;2.00;;
8317;SDS011;4196;48.926;8.964;2022-07-29T14:48:53;2.60;;;1.80;;
8317;SDS011;4196;48.926;8.964;2022-07-29T14:51:40;3.38;;;1.92;;
8317;SDS011;4196;48.926;8.964;2022-07-29T14:54:26;3.28;;;2.17;;
8317;SDS011;4196;48.926;8.964;2022-07-29T14:57:13;4.65;;;2.13;;
8317;SDS011;4196;48.926;8.964;2022-07-29T14:59:59;2.05;;;1.90;;
8317;SDS011;4196;48.926;8.964;2022-07-29T15:02:45;4.13;;;2.20;;
8317;SDS011;4196;48.926;8.964;2022-07-29T15:05:48;2.03;;;1.75;;
8317;SDS011;4196;48.926;8.964;2022-07-29T15:08:35;2.60;;;2.00;;
8317;SDS011;4196;48.926;8.964;2022-07-29T15:11:21;2.63;;;2.00;;
8317;SDS011;4196;48.926;8.964;2022-07-29T15:14:08;6.03;;;2.00;;
8317;SDS011;4196;48.926;8.964;2022-07-29T15:16:54;3.10;;;2.00;;
8317;SDS011;4196;48.926;8.964;2022-07-29T15:19:41;1.92;;;1.75;;
8317;SDS011;4196;48.926;8.964;2022-07-29T15:22:29;1.80;;;1.70;;
8317;SDS011;4196;48.926;8.964;2022-07-29T15:25:16;2.95;;;1.98;;
8317;SDS011;4196;48.926;8.964;2022-07-29T15:28:02;2.45;;;2.03;;
8317;SDS011;4196;48.926;8.964;2022-07-29T15:30:52;2.97;;;1.83;;
8317;SDS011;4196;48.926;8.964;2022-07-29T15:33:41;2.38;;;2.20;;
8317;SDS011;4196;48.926;8.964;2022-07-29T15:36:28;3.75;;;2.13;;
8317;SDS011;4196;48.926;8.964;2022-07-29T15:39:34;4.88;;;2.33;;
8317;SDS011;4196;48.926;8.964;2022-07-29T15:42:20;3.75;;;1.80;;
8317;SDS011;4196;48.926;8.964;2022-07-29T15:45:06;15.63;;;3.03;;
8317;SDS011;4196;48.926;8.964;2022-07-29T15:47:53;12.93;;;2.58;;
8317;SDS011;4196;48.926;8.964;2022-07-29T15:50:39;3.05;;;2.15;;
8317;SDS011;4196;48.926;8.964;2022-07-29T15:53:25;2.90;;;2.17;;
8317;SDS011;4196;48.926;8.964;2022-07-29T15:56:12;2.53;;;2.10;;
8317;SDS011;4196;48.926;8.964;2022-07-29T15:58:58;3.38;;;2.30;;
8317;SDS011;4196;48.926;8.964;2022-07-29T16:01:46;2.40;;;2.20;;
8317;SDS011;4196;48.926;8.964;2022-07-29T16:04:32;2.85;;;2.10;;
8317;SDS011;4196;48.926;8.964;2022-07-29T16:07:19;2.28;;;2.08;;
8317;SDS011;4196;48.926;8.964;2022-07-29T16:10:05;2.35;;;2.15;;
8317;SDS011;4196;48.926;8.964;2022-07-29T16:12:53;2.25;;;2.05;;
8317;SDS011;4196;48.926;8.964;2022-07-29T16:15:39;2.15;;;1.95;;
8317;SDS011;4196;48.926;8.964;2022-07-29T16:18:25;2.85;;;1.98;;
8317;SDS011;4196;48.926;8.964;2022-07-29T16:21:15;2.60;;;2.15;;
8317;SDS011;4196;48.926;8.964;2022-07-29T16:24:02;2.28;;;1.73;;
8317;SDS011;4196;48.926;8.964;2022-07-29T16:26:50;2.85;;;1.90;;
8317;SDS011;4196;48.926;8.964;2022-07-29T16:29:37;2.90;;;1.90;;
8317;SDS011;4196;48.926;8.964;2022-07-29T16:32:24;2.30;;;2.05;;
8317;SDS011;4196;48.926;8.964;2022-07-29T16:35:11;15.98;;;2.08;;
8317;SDS011;4196;48.926;8.964;2022-07-29T16:37:57;4.28;;;2.10;;
8317;SDS011;4196;48.926;8.964;2022-07-29T16:40:44;4.25;;;1.98;;
8317;SDS011;4196;48.926;8.964;2022-07-29T16:43:30;2.88;;;2.13;;
8317;SDS011;4196;48.926;8.964;2022-07-29T16:46:17;1.83;;;1.73;;
8317;SDS011;4196;48.926;8.964;2022-07-29T16:49:05;4.88;;;1.70;;
8317;SDS011;4196;48.926;8.964;2022-07-29T16:51:51;2.17;;;1.60;;
8317;SDS011;4196;48.926;8.964;2022-07-29T16:54:38;1.85;;;1.75;;
8317;SDS011;4196;48.926;8.964;2022-07-29T16:57:25;2.05;;;1.65;;
8317;SDS011;4196;48.926;8.964;2022-07-29T17:00:12;4.55;;;1.85;;
8317;SDS011;4196;48.926;8.964;2022-07-29T17:03:00;2.15;;;1.63;;
8317;SDS011;4196;48.926;8.964;2022-07-29T17:05:47;2.30;;;1.83;;
8317;SDS011;4196;48.926;8.964;2022-07-29T17:08:39;2.85;;;1.70;;
8317;SDS011;4196;48.926;8.964;2022-07-29T17:11:25;2.03;;;1.65;;
8317;SDS011;4196;48.926;8.964;2022-07-29T17:14:32;2.40;;;1.70;;
8317;SDS011;4196;48.926;8.964;2022-07-29T17:17:18;4.43;;;2.58;;
8317;SDS011;4196;48.926;8.964;2022-07-29T17:20:24;3.17;;;2.20;;
8317;SDS011;4196;48.926;8.964;2022-07-29T17:23:11;2.88;;;1.75;;
8317;SDS011;4196;48.926;8.964;2022-07-29T17:25:58;2.95;;;1.80;;
8317;SDS011;4196;48.926;8.964;2022-07-29T17:28:44;1.80;;;1.70;;
8317;SDS011;4196;48.926;8.964;2022-07-29T17:31:31;2.35;;;1.77;;
8317;SDS011;4196;48.926;8.964;2022-07-29T17:34:18;4.20;;;1.90;;
8317;SDS011;4196;48.926;8.964;2022-07-29T17:37:05;2.22;;;1.80;;
8317;SDS011;4196;48.926;8.964;2022-07-29T17:39:53;2.00;;;1.80;;
8317;SDS011;4196;48.926;8.964;2022-07-29T17:42:45;5.50;;;1.80;;
8317;SDS011;4196;48.926;8.964;2022-07-29T17:45:31;3.42;;;1.70;;
8317;SDS011;4196;48.926;8.964;2022-07-29T17:48:35;2.92;;;2.47;;
8317;SDS011;4196;48.926;8.964;2022-07-29T17:51:23;4.40;;;2.63;;
8317;SDS011;4196;48.926;8.964;2022-07-29T17:54:10;2.45;;;2.05;;
8317;SDS011;4196;48.926;8.964;2022-07-29T17:56:57;2.22;;;1.65;;
8317;SDS011;4196;48.926;8.964;2022-07-29T17:59:43;2.17;;;1.70;;
8317;SDS011;4196;48.926;8.964;2022-07-29T18:02:30;3.17;;;2.08;;
8317;SDS011;4196;48.926;8.964;2022-07-29T18:05:16;3.15;;;2.05;;
8317;SDS011;4196;48.926;8.964;2022-07-29T18:08:03;4.75;;;2.75;;
8317;SDS011;4196;48.926;8.964;2022-07-29T18:10:50;2.47;;;2.20;;
8317;SDS011;4196;48.926;8.964;2022-07-29T18:13:36;3.65;;;3.35;;
8317;SDS011;4196;48.926;8.964;2022-07-29T18:16:24;2.78;;;2.47;;
8317;SDS011;4196;48.926;8.964;2022-07-29T18:19:10;3.28;;;2.40;;
8317;SDS011;4196;48.926;8.964;2022-07-29T18:21:57;3.83;;;2.15;;